createdAt,value
2019-05-18T00:02:04.880Z,99932.19
2019-05-18T00:04:53.790Z,99928.74
2019-05-18T00:07:42.779Z,99919.21
2019-05-18T00:10:31.607Z,99921.38
2019-05-18T00:13:20.536Z,99909.25
2019-05-18T00:16:09.395Z,99912.71
2019-05-18T00:18:58.247Z,99906.62
2019-05-18T00:21:40.208Z,99901.00
2019-05-18T00:24:29.065Z,99896.67
2019-05-18T00:27:17.909Z,99897.09
2019-05-18T00:33:22.141Z,99904.05
2019-05-18T00:36:11.036Z,99897.50
2019-05-18T00:38:59.889Z,99898.36
2019-05-18T00:41:48.740Z,99899.26
2019-05-18T00:44:37.550Z,99902.72
2019-05-18T00:47:40.423Z,99901.00
2019-05-18T00:50:17.074Z,99896.66
2019-05-18T00:53:05.919Z,99897.09
2019-05-18T00:55:54.747Z,99896.64
2019-05-18T00:58:43.582Z,99900.55
2019-05-18T01:04:40.198Z,99909.64
2019-05-18T01:07:29.056Z,99912.25
2019-05-18T01:10:17.942Z,99909.64
2019-05-18T01:13:06.873Z,99910.52
2019-05-18T01:15:55.724Z,99910.11
2019-05-18T01:18:38.126Z,99908.38
2019-05-18T01:21:19.572Z,99906.22
2019-05-18T01:24:08.417Z,99902.30
2019-05-18T01:26:57.270Z,99907.48
2019-05-18T01:29:46.208Z,99899.20
2019-05-18T01:32:35.044Z,99890.11
2019-05-18T01:35:23.805Z,99891.33
2019-05-18T01:38:13.267Z,99896.06
2019-05-18T01:41:02.107Z,99893.05
2019-05-18T01:43:51.002Z,99888.30
2019-05-18T01:46:39.852Z,99888.73
2019-05-18T01:52:23.432Z,99893.03
2019-05-18T01:55:12.415Z,99892.55
2019-05-18T01:58:01.263Z,99889.93
2019-05-18T02:00:50.088Z,99892.52
2019-05-18T02:03:38.935Z,99891.63
2019-05-18T02:06:27.751Z,99889.92
2019-05-18T02:09:16.598Z,99893.38
2019-05-18T02:12:05.441Z,99902.52
2019-05-18T02:14:54.264Z,99899.09
2019-05-18T02:17:43.113Z,99891.30
2019-05-18T02:20:25.009Z,99892.63
2019-05-18T02:23:13.861Z,99894.33
2019-05-18T02:26:02.694Z,99893.47
2019-05-18T02:28:51.553Z,99891.78
2019-05-18T02:31:40.370Z,99897.88
2019-05-18T02:34:29.218Z,99897.81
2019-05-18T02:37:18.048Z,99896.05
2019-05-18T02:42:43.652Z,99886.91
2019-05-18T02:45:32.569Z,99891.23
2019-05-18T02:48:21.412Z,99887.75
2019-05-18T02:51:11.646Z,99879.49
2019-05-18T02:54:00.860Z,99886.34
2019-05-18T02:56:49.698Z,99880.30
2019-05-18T02:59:38.537Z,99877.28
2019-05-18T03:02:27.348Z,99876.80
2019-05-18T03:05:16.266Z,99877.26
2019-05-18T03:08:05.081Z,99876.40
2019-05-18T03:10:54.013Z,99875.14
2019-05-18T03:13:42.844Z,99872.58
2019-05-18T03:16:31.687Z,99874.80
2019-05-18T03:19:20.543Z,99867.96
2019-05-18T03:22:02.084Z,99866.27
2019-05-18T03:24:50.927Z,99873.66
2019-05-18T03:27:39.815Z,99867.20
2019-05-18T03:30:28.643Z,99863.75
2019-05-18T03:33:17.563Z,99860.30
2019-05-18T03:36:06.400Z,99856.44
2019-05-18T03:38:55.294Z,99862.92
2019-05-18T03:41:44.181Z,99854.69
2019-05-18T03:44:32.997Z,99855.98
2019-05-18T03:47:21.852Z,99857.71
2019-05-18T03:53:39.000Z,99865.06
2019-05-18T03:56:27.844Z,99865.91
2019-05-18T03:59:16.704Z,99859.88
2019-05-18T04:02:05.599Z,99863.76
2019-05-18T04:04:54.447Z,99870.70
2019-05-18T04:07:43.285Z,99868.97
2019-05-18T04:10:32.139Z,99864.62
2019-05-18T04:13:20.972Z,99864.18
2019-05-18T04:16:09.810Z,99859.82
2019-05-18T04:18:58.641Z,99865.42
2019-05-18T04:21:40.796Z,99859.31
2019-05-18T04:24:29.638Z,99863.25
2019-05-18T04:27:18.486Z,99868.03
2019-05-18T04:33:22.100Z,99861.05
2019-05-18T04:36:10.943Z,99867.62
2019-05-18T04:38:59.755Z,99868.47
2019-05-18T04:41:48.617Z,99868.03
2019-05-18T04:44:37.425Z,99861.09
2019-05-18T04:47:26.271Z,99861.49
2019-05-18T04:50:15.382Z,99868.83
2019-05-18T04:56:12.126Z,99873.63
2019-05-18T04:59:01.063Z,99875.75
2019-05-18T05:01:49.896Z,99877.00
2019-05-18T05:04:38.736Z,99878.30
2019-05-18T05:07:27.578Z,99883.05
2019-05-18T05:10:16.472Z,99884.29
2019-05-18T05:13:05.379Z,99885.03
2019-05-18T05:15:54.234Z,99888.33
2019-05-18T05:18:43.077Z,99892.53
2019-05-18T05:21:31.988Z,99888.51
2019-05-18T05:24:20.838Z,99885.59
2019-05-18T05:27:09.670Z,99894.37
2019-05-18T05:29:58.504Z,99890.78
2019-05-18T05:32:47.358Z,99896.50
2019-05-18T05:35:37.804Z,99892.66
2019-05-18T05:38:26.781Z,99890.75
2019-05-18T05:41:16.727Z,99898.30
2019-05-18T05:44:06.180Z,99894.44
2019-05-18T05:46:55.027Z,99888.16
2019-05-18T05:49:43.946Z,99895.69
2019-05-18T05:52:32.877Z,99898.33
2019-05-18T05:55:21.696Z,99907.61
2019-05-18T05:58:10.545Z,99906.09
2019-05-18T06:00:59.433Z,99906.41
2019-05-18T06:03:48.245Z,99908.97
2019-05-18T06:06:37.108Z,99905.25
2019-05-18T06:09:25.928Z,99908.98
2019-05-18T06:12:14.769Z,99911.30
2019-05-18T06:18:31.923Z,99907.67
2019-05-18T06:21:20.765Z,99917.39
2019-05-18T06:24:09.606Z,99917.63
2019-05-18T06:26:58.443Z,99922.42
2019-05-18T06:29:47.297Z,99926.09
2019-05-18T06:32:36.187Z,99928.59
2019-05-18T06:35:25.037Z,99926.89
2019-05-18T06:38:13.854Z,99934.84
2019-05-18T06:41:02.718Z,99933.33
2019-05-18T06:43:51.605Z,99939.93
2019-05-18T06:46:40.452Z,99941.80
2019-05-18T06:49:29.312Z,99936.51
2019-05-18T06:52:18.125Z,99942.98
2019-05-18T06:55:07.407Z,99943.84
2019-05-18T06:58:17.171Z,99945.29
2019-05-18T07:01:06.032Z,99943.13
2019-05-18T07:03:54.912Z,99943.03
2019-05-18T07:06:43.706Z,99951.65
2019-05-18T07:09:32.601Z,99947.46
2019-05-18T07:12:21.437Z,99949.91
2019-05-18T07:18:38.744Z,99946.27
2019-05-18T07:21:27.662Z,99948.59
2019-05-18T07:24:09.677Z,99947.30
2019-05-18T07:26:58.582Z,99951.03
2019-05-18T07:29:47.408Z,99943.09
2019-05-18T07:32:36.309Z,99939.89
2019-05-18T07:35:25.206Z,99941.58
2019-05-18T07:38:14.070Z,99942.45
2019-05-18T07:41:02.986Z,99940.77
2019-05-18T07:43:51.837Z,99940.58
2019-05-18T07:46:40.664Z,99940.92
2019-05-18T07:49:29.509Z,99938.13
2019-05-18T07:52:18.312Z,99941.16
2019-05-18T07:58:22.057Z,99941.63
2019-05-18T08:01:10.967Z,99948.48
2019-05-18T08:03:59.883Z,99947.80
2019-05-18T08:06:48.773Z,99947.72
2019-05-18T08:09:37.627Z,99945.73
2019-05-18T08:12:26.449Z,99945.17
2019-05-18T08:15:16.028Z,99943.44
2019-05-18T08:18:05.037Z,99944.14
2019-05-18T08:20:53.929Z,99949.03
2019-05-18T08:23:35.343Z,99948.39
2019-05-18T08:26:24.193Z,99951.91
2019-05-18T08:29:13.034Z,99937.84
2019-05-18T08:32:01.862Z,99948.05
2019-05-18T08:34:50.784Z,99940.46
2019-05-18T08:37:39.602Z,99938.23
2019-05-18T08:40:28.472Z,99944.48
2019-05-18T08:46:25.141Z,99949.33
2019-05-18T08:49:14.023Z,99945.30
2019-05-18T08:52:08.176Z,99947.08
2019-05-18T08:54:53.470Z,99945.44
2019-05-18T08:57:42.340Z,99948.02
2019-05-18T09:00:31.174Z,99941.77
2019-05-18T09:03:20.029Z,99949.98
2019-05-18T09:06:08.845Z,99946.22
2019-05-18T09:08:57.703Z,99947.48
2019-05-18T09:11:46.544Z,99946.38
2019-05-18T09:14:35.469Z,99956.67
2019-05-18T09:17:24.369Z,99950.93
2019-05-18T09:23:34.839Z,99944.70
2019-05-18T09:26:23.660Z,99945.03
2019-05-18T09:29:12.498Z,99947.82
2019-05-18T09:32:01.311Z,99946.52
2019-05-18T09:34:50.172Z,99946.88
2019-05-18T09:37:38.988Z,99949.63
2019-05-18T09:43:42.753Z,99954.98
2019-05-18T09:46:31.562Z,99952.58
2019-05-18T09:49:20.409Z,99961.56
2019-05-18T09:52:09.255Z,99966.03
2019-05-18T09:54:58.114Z,99962.67
2019-05-18T09:57:46.948Z,99963.70
2019-05-18T10:00:38.963Z,99966.12
2019-05-18T10:03:26.546Z,99954.41
2019-05-18T10:06:15.352Z,99960.48
2019-05-18T10:15:14.018Z,99964.62
2019-05-18T10:18:02.884Z,99961.47
2019-05-18T10:20:51.748Z,99955.78
2019-05-18T10:23:33.502Z,99949.77
2019-05-18T10:26:22.395Z,99950.93
2019-05-18T10:29:11.253Z,99945.33
2019-05-18T10:32:00.198Z,99944.62
2019-05-18T10:34:49.047Z,99942.03
2019-05-18T10:37:37.896Z,99944.91
2019-05-18T10:40:26.711Z,99947.51
2019-05-18T10:43:15.655Z,99941.52
2019-05-18T10:46:04.477Z,99941.30
2019-05-18T10:48:53.370Z,99940.58
2019-05-18T10:51:42.299Z,99937.81
2019-05-18T10:54:31.171Z,99942.11
2019-05-18T10:57:20.076Z,99936.64
2019-05-18T11:00:29.857Z,99940.78
2019-05-18T11:03:18.779Z,99937.66
2019-05-18T11:06:07.597Z,99935.70
2019-05-18T11:08:56.463Z,99929.07
2019-05-18T11:11:45.368Z,99926.77
2019-05-18T11:14:15.024Z,99923.56
2019-05-18T11:17:03.853Z,99923.82
2019-05-18T11:19:52.723Z,99926.32
2019-05-18T11:22:41.565Z,99924.52
2019-05-18T11:25:23.575Z,99918.59
2019-05-18T11:28:12.414Z,99918.73
2019-05-18T11:31:01.285Z,99913.59
2019-05-18T11:33:50.146Z,99912.85
2019-05-18T11:36:38.980Z,99917.16
2019-05-18T11:39:27.883Z,99910.80
2019-05-18T11:42:16.810Z,99914.90
2019-05-18T11:45:25.337Z,99905.48
2019-05-18T11:48:14.281Z,99913.83
2019-05-18T11:51:03.183Z,99906.11
2019-05-18T11:53:58.422Z,99904.53
2019-05-18T11:56:42.541Z,99905.80
2019-05-18T11:59:31.378Z,99906.98
2019-05-18T12:02:20.283Z,99901.91
2019-05-18T12:05:09.190Z,99902.77
2019-05-18T12:07:58.046Z,99898.53
2019-05-18T12:10:46.945Z,99899.03
2019-05-18T12:13:35.813Z,99901.53
2019-05-18T12:16:24.673Z,99895.61
2019-05-18T12:19:13.536Z,99886.52
2019-05-18T12:22:02.405Z,99886.44
2019-05-18T12:24:44.029Z,99884.99
2019-05-18T12:27:32.859Z,99885.41
2019-05-18T12:30:21.841Z,99886.59
2019-05-18T12:33:10.680Z,99880.56
2019-05-18T12:35:59.581Z,99877.32
2019-05-18T12:38:48.415Z,99881.95
2019-05-18T12:41:37.335Z,99888.97
2019-05-18T12:44:26.255Z,99887.64
2019-05-18T12:47:15.123Z,99892.86
2019-05-18T12:53:18.834Z,99885.39
2019-05-18T12:56:07.808Z,99883.96
2019-05-18T12:58:56.738Z,99886.03
2019-05-18T13:01:45.620Z,99876.57
2019-05-18T13:07:49.141Z,99874.27
2019-05-18T13:10:38.005Z,99874.19
2019-05-18T13:13:26.854Z,99863.57
2019-05-18T13:16:15.809Z,99861.08
2019-05-18T13:19:04.728Z,99861.59
2019-05-18T13:21:53.638Z,99859.80
2019-05-18T13:24:44.860Z,99857.04
2019-05-18T13:27:38.302Z,99857.73
2019-05-18T13:30:19.728Z,99850.50
2019-05-18T13:33:07.336Z,99848.05
2019-05-18T13:35:56.178Z,99841.60
2019-05-18T13:38:45.022Z,99836.84
2019-05-18T13:41:33.848Z,99834.61
2019-05-18T13:44:22.804Z,99837.23
2019-05-18T13:47:11.721Z,99837.70
2019-05-18T13:50:00.599Z,99841.33
2019-05-18T13:52:49.415Z,99844.58
2019-05-18T13:55:38.261Z,99843.20
2019-05-18T13:58:27.184Z,99839.38
2019-05-18T14:01:16.119Z,99842.63
2019-05-18T14:04:04.964Z,99839.75
2019-05-18T14:06:53.918Z,99838.05
2019-05-18T14:09:42.741Z,99838.25
2019-05-18T14:12:31.586Z,99840.20
2019-05-18T14:15:22.777Z,99839.69
2019-05-18T14:17:51.670Z,99836.75
2019-05-18T14:20:40.572Z,99837.16
2019-05-18T14:23:29.445Z,99835.28
2019-05-18T14:26:11.680Z,99837.81
2019-05-18T14:29:00.511Z,99838.86
2019-05-18T14:31:49.334Z,99839.91
2019-05-18T14:34:38.167Z,99837.93
2019-05-18T14:37:27.028Z,99843.64
2019-05-18T14:43:44.252Z,99847.65
2019-05-18T14:46:33.085Z,99840.33
2019-05-18T14:49:21.946Z,99847.28
2019-05-18T14:52:12.166Z,99846.09
2019-05-18T14:55:01.447Z,99838.27
2019-05-18T14:57:50.289Z,99846.59
2019-05-18T15:00:39.238Z,99849.50
2019-05-18T15:03:28.099Z,99846.42
2019-05-18T15:06:16.915Z,99842.95
2019-05-18T15:09:26.697Z,99837.67
2019-05-18T15:12:15.572Z,99847.72
2019-05-18T15:15:25.274Z,99841.28
2019-05-18T15:18:14.110Z,99845.50
2019-05-18T15:21:02.962Z,99839.51
2019-05-18T15:23:51.826Z,99841.95
2019-05-18T15:26:33.979Z,99848.16
2019-05-18T15:29:22.835Z,99847.55
2019-05-18T15:32:11.669Z,99845.55
2019-05-18T15:35:00.527Z,99848.48
2019-05-18T15:37:49.419Z,99848.52
2019-05-18T15:40:38.348Z,99853.05
2019-05-18T15:43:27.223Z,99848.70
2019-05-18T15:46:16.140Z,99851.58
2019-05-18T15:49:05.192Z,99846.92
2019-05-18T15:51:54.080Z,99846.30
2019-05-18T15:54:42.898Z,99848.23
2019-05-18T15:57:31.831Z,99850.16
2019-05-18T16:00:41.548Z,99850.80
2019-05-18T16:03:30.362Z,99846.13
2019-05-18T16:06:19.183Z,99848.11
2019-05-18T16:09:08.099Z,99851.55
2019-05-18T16:11:56.918Z,99845.96
2019-05-18T16:14:45.783Z,99854.37
2019-05-18T16:17:39.618Z,99852.21
2019-05-18T16:20:25.249Z,99862.10
2019-05-18T16:23:14.070Z,99865.69
2019-05-18T16:25:55.471Z,99860.03
2019-05-18T16:28:44.412Z,99862.02
2019-05-18T16:31:33.328Z,99866.88
2019-05-18T16:34:22.232Z,99866.50
2019-05-18T16:37:11.302Z,99877.41
2019-05-18T16:40:00.208Z,99878.13
2019-05-18T16:42:49.031Z,99876.55
2019-05-18T16:45:37.876Z,99869.94
2019-05-18T16:48:26.724Z,99864.74
2019-05-18T16:51:15.647Z,99868.30
2019-05-18T16:54:04.587Z,99868.52
2019-05-18T16:56:53.567Z,99870.17
2019-05-18T16:59:42.535Z,99876.68
2019-05-18T17:02:32.198Z,99875.95
2019-05-18T17:05:21.979Z,99875.30
2019-05-18T17:08:10.799Z,99870.06
2019-05-18T17:10:59.735Z,99877.73
2019-05-18T17:13:48.635Z,99877.90
2019-05-18T17:16:37.507Z,99868.66
2019-05-18T17:19:26.333Z,99870.02
2019-05-18T17:22:15.248Z,99865.83
2019-05-18T17:28:11.649Z,99872.34
2019-05-18T17:31:00.508Z,99878.63
2019-05-18T17:33:49.342Z,99886.89
2019-05-18T17:36:38.205Z,99886.39
2019-05-18T17:39:27.021Z,99887.34
2019-05-18T17:42:15.863Z,99884.28
2019-05-18T17:45:25.677Z,99885.80
2019-05-18T17:48:14.565Z,99888.09
2019-05-18T17:51:03.439Z,99893.02
2019-05-18T17:53:52.354Z,99891.61
2019-05-18T17:56:41.206Z,99897.67
2019-05-18T17:59:30.039Z,99897.50
2019-05-18T18:02:19.023Z,99900.63
2019-05-18T18:08:36.362Z,99895.56
2019-05-18T18:11:25.709Z,99894.80
2019-05-18T18:14:14.631Z,99898.43
2019-05-18T18:17:03.453Z,99898.77
2019-05-18T18:19:52.323Z,99898.69
2019-05-18T18:22:41.292Z,99898.61
2019-05-18T18:25:30.245Z,99898.84
2019-05-18T18:28:11.949Z,99907.20
2019-05-18T18:31:00.770Z,99909.03
2019-05-18T18:33:49.604Z,99902.53
2019-05-18T18:36:38.512Z,99902.25
2019-05-18T18:39:27.369Z,99917.09
2019-05-18T18:42:16.248Z,99913.52
2019-05-18T18:45:25.972Z,99916.72
2019-05-18T18:48:14.884Z,99924.28
2019-05-18T18:51:03.800Z,99921.17
2019-05-18T18:53:52.717Z,99924.89
2019-05-18T18:56:41.619Z,99925.16
2019-05-18T18:59:30.501Z,99927.53
2019-05-18T19:02:19.464Z,99920.91
2019-05-18T19:05:08.445Z,99919.96
2019-05-18T19:07:57.267Z,99925.84
2019-05-18T19:10:46.182Z,99921.30
2019-05-18T19:13:35.026Z,99924.98
2019-05-18T19:16:23.919Z,99926.20
2019-05-18T19:19:12.853Z,99928.62
2019-05-18T19:22:01.716Z,99933.33
2019-05-18T19:24:50.526Z,99939.56
2019-05-18T19:27:32.576Z,99939.72
2019-05-18T19:30:21.478Z,99945.69
2019-05-18T19:33:10.329Z,99943.11
2019-05-18T19:35:59.179Z,99949.91
2019-05-18T19:38:48.075Z,99957.20
2019-05-18T19:41:36.932Z,99965.80
2019-05-18T19:44:25.806Z,99968.03
2019-05-18T19:47:14.686Z,99976.85
2019-05-18T19:53:31.900Z,99984.52
2019-05-18T19:56:20.760Z,99989.50
2019-05-18T19:59:09.661Z,99990.54
2019-05-18T20:01:58.495Z,99995.11
2019-05-18T20:05:05.650Z,99994.98
2019-05-18T20:07:37.988Z,99998.14
2019-05-18T20:10:26.891Z,100000.42
2019-05-18T20:13:15.814Z,99997.73
2019-05-18T20:16:04.645Z,100002.76
2019-05-18T20:18:53.470Z,100000.54
2019-05-18T20:21:42.328Z,100000.88
2019-05-18T20:24:31.279Z,100000.09
2019-05-18T20:27:12.862Z,99991.94
2019-05-18T20:30:01.657Z,99997.30
2019-05-18T20:32:50.528Z,100008.43
2019-05-18T20:35:39.377Z,100003.40
2019-05-18T20:38:28.400Z,99998.17
2019-05-18T20:41:17.265Z,100003.20
2019-05-18T20:44:06.128Z,100001.45
2019-05-18T20:46:54.950Z,100001.57
2019-05-18T20:49:43.784Z,100002.09
2019-05-18T20:52:32.645Z,99998.94
2019-05-18T20:55:21.495Z,100005.27
2019-05-18T20:58:10.361Z,100011.45
2019-05-18T21:00:59.253Z,100017.77
2019-05-18T21:03:48.225Z,100023.15
2019-05-18T21:06:37.123Z,100031.73
2019-05-18T21:09:26.035Z,100019.45
2019-05-18T21:12:14.911Z,100022.41
2019-05-18T21:18:18.925Z,100024.00
2019-05-18T21:21:14.996Z,100016.23
2019-05-18T21:24:03.914Z,100002.96
2019-05-18T21:26:52.776Z,99997.28
2019-05-18T21:29:34.806Z,99994.25
2019-05-18T21:32:23.628Z,99986.73
2019-05-18T21:38:27.070Z,99981.58
2019-05-18T21:41:15.995Z,99973.61
2019-05-18T21:44:04.890Z,99970.55
2019-05-18T21:46:53.780Z,99969.85
2019-05-18T21:49:42.608Z,99969.03
2019-05-18T21:52:31.497Z,99968.77
2019-05-18T21:55:20.361Z,99957.95
2019-05-18T21:58:12.147Z,99958.31
2019-05-18T22:01:00.019Z,99959.25
2019-05-18T22:03:48.938Z,99963.36
2019-05-18T22:06:37.864Z,99953.80
2019-05-18T22:09:26.928Z,99947.97
2019-05-18T22:12:15.883Z,99937.33
2019-05-18T22:15:27.964Z,99942.52
2019-05-18T22:18:23.940Z,99945.81
2019-05-18T22:21:06.867Z,99935.47
2019-05-18T22:23:55.705Z,99932.11
2019-05-18T22:26:44.555Z,99934.23
2019-05-18T22:29:26.457Z,99932.44
2019-05-18T22:32:15.305Z,99935.58
2019-05-18T22:38:32.487Z,99926.73
2019-05-18T22:41:21.311Z,99920.05
2019-05-18T22:44:10.221Z,99916.94
2019-05-18T22:46:59.255Z,99921.64
2019-05-18T22:49:48.127Z,99907.01
2019-05-18T22:52:36.937Z,99909.89
2019-05-18T22:55:25.791Z,99914.30
2019-05-18T22:58:14.641Z,99909.55
2019-05-18T23:01:03.482Z,99900.38
2019-05-18T23:03:52.344Z,99899.07
2019-05-18T23:06:41.332Z,99898.58
2019-05-18T23:09:30.124Z,99903.97
2019-05-18T23:12:18.984Z,99904.92
2019-05-18T23:18:37.084Z,99905.41
2019-05-18T23:21:25.927Z,99914.03
2019-05-18T23:24:14.884Z,99906.58
2019-05-18T23:27:03.729Z,99910.94
2019-05-18T23:29:45.427Z,99910.50
2019-05-18T23:32:34.334Z,99913.92
2019-05-18T23:35:23.220Z,99916.13
2019-05-18T23:38:12.101Z,99906.09
2019-05-18T23:41:00.941Z,99907.32
2019-05-18T23:43:49.840Z,99902.80
2019-05-18T23:46:38.704Z,99903.40
2019-05-18T23:49:27.609Z,99901.31
2019-05-18T23:52:16.452Z,99897.02
2019-05-18T23:55:26.201Z,99909.33
2019-05-18T23:58:15.121Z,99899.59
